Time;durP1;ratioP1;P1;durP2;ratioP2;P2;SDS_P1;SDS_P2;PMS_P1;PMS_P2;Temp;Humidity;BMP_temperature;BMP_pressure;BME280_temperature;BME280_humidity;BME280_pressure;Samples;Min_cycle;Max_cycle;Signal;HPM_P1;HPM_P2
2021/12/19 00:00:32;;;;;;;12.40;5.40;;;7.90;29.20;;;;;;6217209;28;20227;-58
2021/12/19 00:03:59;;;;;;;6.40;5.80;;;7.80;28.60;;;;;;6213960;28;20827;-60
2021/12/19 00:10:23;;;;;;;12.07;5.97;;;7.90;30.00;;;;;;6225587;28;20706;-60
2021/12/19 00:13:27;;;;;;;11.63;5.00;;;7.90;29.10;;;;;;6218506;28;20732;-55
2021/12/19 00:16:30;;;;;;;15.50;6.33;;;7.90;29.50;;;;;;6222653;28;20327;-60
2021/12/19 00:19:34;;;;;;;8.23;5.23;;;7.90;28.60;;;;;;6222148;28;20231;-59
2021/12/19 00:22:36;;;;;;;8.83;5.30;;;7.90;29.00;;;;;;6212343;28;20242;-62
2021/12/19 00:25:40;;;;;;;9.80;5.23;;;7.90;29.20;;;;;;6223809;28;20296;-59
2021/12/19 00:28:44;;;;;;;9.77;5.20;;;7.90;28.60;;;;;;6234542;28;20616;-61
2021/12/19 00:31:48;;;;;;;8.03;5.10;;;7.90;29.50;;;;;;6225505;28;20584;-59
2021/12/19 00:34:51;;;;;;;7.93;6.03;;;7.80;29.60;;;;;;6235353;28;20744;-62
2021/12/19 00:37:54;;;;;;;8.67;5.60;;;7.90;30.00;;;;;;6234553;28;20249;-60
2021/12/19 00:40:57;;;;;;;8.43;5.23;;;7.90;29.00;;;;;;6234947;28;20247;-59
2021/12/19 00:44:09;;;;;;;13.10;5.43;;;7.90;29.60;;;;;;6235856;28;20237;-60
2021/12/19 00:47:12;;;;;;;8.33;5.30;;;7.90;28.60;;;;;;6233984;28;20551;-60
2021/12/19 00:50:15;;;;;;;6.80;5.73;;;7.90;28.60;;;;;;6235122;28;20241;-60
2021/12/19 00:53:19;;;;;;;13.43;6.20;;;7.90;28.30;;;;;;6232860;28;20258;-60
2021/12/19 00:56:22;;;;;;;8.93;6.00;;;7.90;28.30;;;;;;6228777;28;20239;-60
2021/12/19 00:59:26;;;;;;;6.83;5.97;;;7.90;28.20;;;;;;6206985;28;20605;-60
2021/12/19 01:02:29;;;;;;;9.83;7.23;;;8.00;27.50;;;;;;6206826;28;20231;-58
2021/12/19 01:05:35;;;;;;;10.93;6.53;;;7.90;26.00;;;;;;6212443;28;20284;-60
2021/12/19 01:08:38;;;;;;;7.37;6.50;;;7.90;27.20;;;;;;6220297;28;20607;-60
2021/12/19 01:11:41;;;;;;;8.00;7.00;;;7.90;26.30;;;;;;6214830;28;20807;-61
2021/12/19 01:14:45;;;;;;;8.57;6.60;;;7.90;26.70;;;;;;6217955;28;20320;-60
2021/12/19 01:17:48;;;;;;;7.70;6.20;;;7.90;26.10;;;;;;6225947;28;20277;-59
2021/12/19 01:20:51;;;;;;;7.67;6.10;;;7.80;26.20;;;;;;6218249;28;20693;-60
2021/12/19 01:23:54;;;;;;;6.90;6.37;;;7.80;24.90;;;;;;6208268;28;20243;-60
2021/12/19 01:26:58;;;;;;;10.20;6.57;;;7.80;24.80;;;;;;6223925;28;20263;-60
2021/12/19 01:30:02;;;;;;;10.20;7.77;;;7.90;25.10;;;;;;6224525;28;20317;-60
2021/12/19 01:33:05;;;;;;;7.93;7.17;;;7.80;26.20;;;;;;6223881;28;20591;-59
2021/12/19 01:36:08;;;;;;;8.53;7.70;;;7.80;26.10;;;;;;6219065;28;20745;-64
2021/12/19 01:39:12;;;;;;;8.07;7.43;;;7.70;26.80;;;;;;6224912;28;20444;-60
2021/12/19 01:42:17;;;;;;;8.80;8.00;;;7.80;26.20;;;;;;6221427;28;20642;-59
2021/12/19 01:45:27;;;;;;;9.27;8.50;;;7.80;26.40;;;;;;6219684;28;20314;-59
2021/12/19 01:48:30;;;;;;;9.63;8.37;;;7.80;26.20;;;;;;6213900;28;20240;-60
2021/12/19 01:51:33;;;;;;;11.77;9.43;;;7.70;26.20;;;;;;6245355;28;20329;-57
2021/12/19 01:54:36;;;;;;;9.33;8.50;;;7.80;26.50;;;;;;6209134;28;20265;-58
2021/12/19 01:57:39;;;;;;;10.20;8.43;;;7.70;26.10;;;;;;6211414;28;20333;-60
2021/12/19 02:00:46;;;;;;;10.57;8.97;;;7.80;27.20;;;;;;6210044;28;20243;-60
2021/12/19 02:03:48;;;;;;;9.80;8.83;;;7.70;27.90;;;;;;6231476;28;20245;-60
2021/12/19 02:06:51;;;;;;;9.43;8.50;;;7.70;28.20;;;;;;6211885;28;20415;-60
2021/12/19 02:09:54;;;;;;;9.10;8.13;;;7.70;28.40;;;;;;6224297;28;20536;-61
2021/12/19 02:12:58;;;;;;;8.70;7.90;;;7.70;27.20;;;;;;6212432;28;20248;-60
2021/12/19 02:16:04;;;;;;;9.43;7.37;;;7.70;26.80;;;;;;6214243;28;20242;-60
2021/12/19 02:19:09;;;;;;;7.87;7.03;;;7.70;26.70;;;;;;6220913;28;20755;-60
2021/12/19 02:22:13;;;;;;;7.37;6.77;;;7.70;26.80;;;;;;6211708;28;20771;-59
2021/12/19 02:25:16;;;;;;;6.20;5.70;;;7.70;26.50;;;;;;6214275;28;20244;-59
2021/12/19 02:28:19;;;;;;;8.47;5.87;;;7.70;26.60;;;;;;6228806;28;20253;-60
2021/12/19 02:31:22;;;;;;;6.40;5.63;;;7.70;27.10;;;;;;6224366;28;20239;-60
2021/12/19 02:34:28;;;;;;;6.73;5.30;;;7.70;27.60;;;;;;6219875;28;20307;-60
2021/12/19 02:38:07;;;;;;;5.77;5.50;;;7.80;26.70;;;;;;6222102;28;20850;-58
2021/12/19 02:51:11;;;;;;;5.77;4.60;;;7.70;27.50;;;;;;6216623;28;20230;-60
2021/12/19 02:54:15;;;;;;;5.67;5.00;;;7.80;27.20;;;;;;6233758;28;20725;-61
2021/12/19 02:57:18;;;;;;;5.00;4.50;;;7.80;27.60;;;;;;6235647;28;20261;-60
2021/12/19 03:00:24;;;;;;;5.70;5.07;;;7.70;27.20;;;;;;6233322;28;20376;-57
2021/12/19 03:03:27;;;;;;;5.33;4.60;;;7.80;27.50;;;;;;6236789;28;20261;-59
2021/12/19 03:06:30;;;;;;;4.97;4.53;;;7.80;26.20;;;;;;6236664;28;20243;-59
2021/12/19 03:09:53;;;;;;;5.13;4.67;;;7.90;26.80;;;;;;6224813;28;20273;-60
2021/12/19 03:13:05;;;;;;;5.00;4.50;;;7.80;26.70;;;;;;6237316;28;20710;-60
2021/12/19 03:19:29;;;;;;;4.50;4.30;;;7.80;26.80;;;;;;6210163;28;20779;-60
2021/12/19 03:22:32;;;;;;;4.47;4.17;;;7.80;26.20;;;;;;6217576;28;20239;-59
2021/12/19 03:25:36;;;;;;;4.33;4.13;;;7.80;26.40;;;;;;6234404;28;20238;-58
2021/12/19 03:28:39;;;;;;;4.40;4.20;;;7.80;27.00;;;;;;6233174;28;20381;-59
2021/12/19 03:31:43;;;;;;;4.77;4.43;;;7.80;26.70;;;;;;6199510;28;20719;-55
2021/12/19 03:34:45;;;;;;;8.50;4.60;;;7.80;27.00;;;;;;6229187;28;20226;-57
2021/12/19 03:37:50;;;;;;;6.97;4.80;;;7.80;26.00;;;;;;6236720;28;20243;-59
2021/12/19 03:41:09;;;;;;;4.40;4.10;;;7.80;27.00;;;;;;6236330;28;20254;-60
2021/12/19 03:44:12;;;;;;;4.70;4.30;;;7.80;26.10;;;;;;6233438;28;20265;-60
2021/12/19 03:47:15;;;;;;;4.13;3.93;;;7.80;26.40;;;;;;6234759;28;20499;-58
2021/12/19 03:50:22;;;;;;;4.50;4.10;;;7.80;26.40;;;;;;6229688;28;20241;-59
2021/12/19 03:53:24;;;;;;;5.07;4.33;;;7.80;25.50;;;;;;6228296;28;20293;-58
2021/12/19 03:56:28;;;;;;;4.30;4.03;;;7.80;26.30;;;;;;6232731;28;20248;-59
2021/12/19 03:59:31;;;;;;;4.53;4.17;;;7.80;25.30;;;;;;6212294;28;20760;-60
2021/12/19 04:02:34;;;;;;;4.67;4.37;;;7.80;25.60;;;;;;6198951;28;20720;-57
2021/12/19 04:05:38;;;;;;;4.73;4.43;;;7.90;25.30;;;;;;6214420;28;20234;-58
2021/12/19 04:08:41;;;;;;;4.90;4.50;;;7.80;25.30;;;;;;6235711;28;20241;-59
2021/12/19 04:11:45;;;;;;;4.80;4.53;;;7.80;24.70;;;;;;6234622;28;20234;-61
2021/12/19 04:14:48;;;;;;;5.23;4.93;;;7.80;24.70;;;;;;6227740;28;20776;-60
2021/12/19 04:17:51;;;;;;;4.47;4.17;;;7.80;24.20;;;;;;6235623;28;20785;-61
2021/12/19 04:20:54;;;;;;;5.43;5.13;;;7.80;24.70;;;;;;6234457;28;20234;-58
2021/12/19 04:23:56;;;;;;;5.60;5.27;;;7.80;24.70;;;;;;6228448;28;20322;-63
2021/12/19 04:27:01;;;;;;;5.57;5.17;;;7.80;24.70;;;;;;6235700;28;20246;-59
2021/12/19 04:30:05;;;;;;;5.30;5.07;;;7.80;24.70;;;;;;6234914;28;20376;-59
2021/12/19 04:33:11;;;;;;;5.73;5.27;;;7.80;23.40;;;;;;6214261;28;20234;-59
2021/12/19 04:36:21;;;;;;;6.07;5.30;;;7.80;22.90;;;;;;6230095;28;20736;-62
2021/12/19 04:39:35;;;;;;;5.67;5.27;;;7.80;22.60;;;;;;6234456;28;20238;-59
2021/12/19 04:53:06;;;;;;;6.43;5.93;;;7.80;23.00;;;;;;6229757;28;20723;-59
2021/12/19 04:56:29;;;;;;;6.30;5.87;;;7.90;22.70;;;;;;6224636;28;20696;-59
2021/12/19 05:02:57;;;;;;;5.77;5.27;;;7.80;22.50;;;;;;6222367;28;20634;-60
2021/12/19 05:06:07;;;;;;;6.53;5.93;;;7.80;20.80;;;;;;6228139;28;20234;-60
2021/12/19 05:15:53;;;;;;;6.27;5.63;;;7.80;22.20;;;;;;6218948;28;20334;-59
2021/12/19 05:19:03;;;;;;;6.47;5.70;;;7.70;21.60;;;;;;6227197;28;20287;-60
2021/12/19 05:22:06;;;;;;;7.80;5.37;;;7.80;22.70;;;;;;6229740;28;20273;-60
2021/12/19 05:25:14;;;;;;;5.67;5.10;;;7.70;22.40;;;;;;6232024;28;20543;-59
2021/12/19 05:28:17;;;;;;;6.10;4.97;;;7.70;22.60;;;;;;6234151;28;20231;-59
2021/12/19 05:31:22;;;;;;;6.70;5.17;;;7.70;23.40;;;;;;6233371;28;20238;-58
2021/12/19 05:34:25;;;;;;;6.30;5.20;;;7.70;24.50;;;;;;6229178;28;20659;-60
2021/12/19 05:44:15;;;;;;;7.57;5.67;;;7.60;24.60;;;;;;6232476;28;20385;-59
2021/12/19 05:47:21;;;;;;;6.60;5.30;;;7.60;24.90;;;;;;6229469;28;20624;-58
2021/12/19 05:50:24;;;;;;;10.47;5.70;;;7.40;26.10;;;;;;6228863;28;20402;-59
2021/12/19 05:53:27;;;;;;;8.83;5.80;;;7.50;25.40;;;;;;6232932;28;20234;-59
2021/12/19 05:56:30;;;;;;;5.77;5.10;;;7.50;25.50;;;;;;6230917;28;20239;-59
2021/12/19 05:59:33;;;;;;;6.37;5.73;;;7.50;25.20;;;;;;6234556;28;20317;-63
2021/12/19 06:02:37;;;;;;;7.93;5.27;;;7.50;25.70;;;;;;6233845;28;20380;-60
2021/12/19 06:05:40;;;;;;;6.77;5.40;;;7.40;24.90;;;;;;6230074;28;20407;-59
2021/12/19 06:08:42;;;;;;;6.53;5.17;;;7.60;24.60;;;;;;6233631;28;20322;-59
2021/12/19 06:11:45;;;;;;;5.60;5.20;;;7.50;25.00;;;;;;6231390;28;20281;-59
2021/12/19 06:14:48;;;;;;;6.10;4.83;;;7.40;25.60;;;;;;6233005;28;20244;-61
2021/12/19 06:17:52;;;;;;;6.90;5.10;;;7.40;25.80;;;;;;6232209;28;20242;-61
2021/12/19 06:20:55;;;;;;;5.03;4.63;;;7.60;24.60;;;;;;6231751;28;20849;-59
2021/12/19 06:23:58;;;;;;;6.93;5.10;;;7.60;24.60;;;;;;6231650;28;20732;-59
2021/12/19 06:27:03;;;;;;;7.27;4.87;;;7.50;25.80;;;;;;6231226;28;20325;-58
2021/12/19 06:30:07;;;;;;;7.00;4.50;;;7.40;26.30;;;;;;6233269;28;20231;-59
2021/12/19 06:33:12;;;;;;;4.77;4.37;;;7.40;25.90;;;;;;6233970;28;20321;-58
2021/12/19 06:36:14;;;;;;;7.30;4.77;;;7.40;24.90;;;;;;6226573;28;20246;-60
2021/12/19 06:39:17;;;;;;;4.67;4.37;;;7.40;25.40;;;;;;6233442;28;20344;-59
2021/12/19 06:42:21;;;;;;;6.97;4.90;;;7.40;25.90;;;;;;6233691;28;20316;-60
2021/12/19 06:45:23;;;;;;;5.30;4.83;;;7.40;25.60;;;;;;6232788;28;20435;-60
2021/12/19 06:48:27;;;;;;;7.37;5.17;;;7.40;27.20;;;;;;6233230;28;20234;-60
2021/12/19 06:51:31;;;;;;;7.93;4.90;;;7.40;27.00;;;;;;6228712;28;20238;-59
2021/12/19 06:54:34;;;;;;;5.10;4.70;;;7.40;28.30;;;;;;6231539;28;20325;-59
2021/12/19 06:57:37;;;;;;;6.83;4.23;;;7.40;27.70;;;;;;6230792;28;20322;-59
2021/12/19 07:00:40;;;;;;;3.77;3.67;;;7.40;26.90;;;;;;6232409;28;20239;-61
2021/12/19 07:03:45;;;;;;;4.33;4.07;;;7.30;24.40;;;;;;6233694;28;20249;-61
2021/12/19 07:06:52;;;;;;;4.90;3.90;;;7.50;24.50;;;;;;6233856;28;20234;-62
2021/12/19 07:09:55;;;;;;;4.43;4.20;;;7.30;23.80;;;;;;6235383;28;20231;-60
2021/12/19 07:12:58;;;;;;;4.10;3.80;;;7.40;24.50;;;;;;6228604;28;20868;-60
2021/12/19 07:16:01;;;;;;;4.97;3.80;;;7.30;24.10;;;;;;6237137;28;20245;-60
2021/12/19 07:19:05;;;;;;;4.77;3.70;;;7.40;23.80;;;;;;6235229;28;20227;-60
2021/12/19 07:22:08;;;;;;;3.77;3.47;;;7.30;21.60;;;;;;6228941;28;20376;-60
2021/12/19 07:25:11;;;;;;;4.67;3.97;;;7.30;21.90;;;;;;6235632;28;20238;-60
2021/12/19 07:28:14;;;;;;;5.23;3.90;;;7.40;21.70;;;;;;6230816;28;20369;-58
2021/12/19 07:31:21;;;;;;;4.10;3.63;;;7.40;21.70;;;;;;6232405;28;20635;-60
2021/12/19 07:34:31;;;;;;;4.40;4.10;;;7.40;23.40;;;;;;6236588;28;20256;-58
2021/12/19 07:37:36;;;;;;;4.60;4.30;;;7.30;24.50;;;;;;6221779;28;20368;-59
2021/12/19 07:40:46;;;;;;;6.97;5.13;;;7.40;25.60;;;;;;6219706;28;20816;-59
2021/12/19 07:43:49;;;;;;;5.03;4.53;;;7.30;28.20;;;;;;6235659;28;20663;-60
2021/12/19 07:46:52;;;;;;;4.77;4.43;;;7.30;29.30;;;;;;6232987;28;20248;-59
2021/12/19 07:49:56;;;;;;;4.50;4.30;;;7.30;29.80;;;;;;6236811;28;20521;-60
2021/12/19 07:53:01;;;;;;;5.00;4.00;;;7.30;30.30;;;;;;6234391;28;20234;-60
2021/12/19 07:56:04;;;;;;;3.80;3.60;;;7.30;31.40;;;;;;6236814;28;20309;-59
2021/12/19 07:59:07;;;;;;;3.60;3.50;;;7.20;32.40;;;;;;6236606;28;20379;-59
2021/12/19 08:02:11;;;;;;;3.73;3.53;;;7.20;35.50;;;;;;6234481;28;20242;-61
2021/12/19 08:05:17;;;;;;;3.60;3.50;;;7.20;38.70;;;;;;6236455;28;20250;-59
2021/12/19 08:08:26;;;;;;;3.50;3.40;;;7.10;39.80;;;;;;6234311;28;20790;-60
2021/12/19 08:11:40;;;;;;;3.30;3.20;;;7.30;39.70;;;;;;6234429;28;20298;-59
2021/12/19 08:14:43;;;;;;;3.53;3.30;;;7.10;39.60;;;;;;6233693;28;20654;-60
2021/12/19 08:17:46;;;;;;;3.13;3.03;;;7.20;41.80;;;;;;6235091;28;20243;-59
2021/12/19 08:20:50;;;;;;;3.03;2.83;;;7.10;42.60;;;;;;6237209;28;20394;-59
2021/12/19 08:23:57;;;;;;;2.80;2.80;;;7.00;42.30;;;;;;6234273;28;20469;-58
2021/12/19 08:27:01;;;;;;;3.00;3.00;;;7.00;43.60;;;;;;6233037;28;20226;-59
2021/12/19 08:30:06;;;;;;;3.20;3.00;;;7.00;44.40;;;;;;6235486;28;20227;-59
2021/12/19 08:33:09;;;;;;;3.17;3.17;;;7.00;45.80;;;;;;6233723;28;20724;-60
2021/12/19 08:36:13;;;;;;;3.27;3.10;;;7.00;46.30;;;;;;6231670;28;20731;-60
2021/12/19 08:39:16;;;;;;;3.43;3.23;;;7.10;46.00;;;;;;6213347;28;20242;-59
2021/12/19 08:42:20;;;;;;;4.73;3.50;;;7.00;45.60;;;;;;6210065;28;20317;-59
2021/12/19 08:45:22;;;;;;;3.33;3.20;;;7.10;46.60;;;;;;6230603;28;20295;-61
2021/12/19 08:48:25;;;;;;;3.00;3.00;;;7.10;47.10;;;;;;6236530;28;20247;-60
2021/12/19 08:51:31;;;;;;;3.27;3.07;;;7.10;48.30;;;;;;6234963;28;20508;-60
2021/12/19 08:54:34;;;;;;;3.13;3.10;;;7.10;47.80;;;;;;6235702;28;20238;-60
2021/12/19 08:57:37;;;;;;;3.03;2.93;;;7.20;47.90;;;;;;6234584;28;20330;-60
2021/12/19 09:00:40;;;;;;;3.00;3.00;;;7.20;48.70;;;;;;6228674;28;20254;-59
2021/12/19 09:03:43;;;;;;;3.60;3.27;;;7.10;48.20;;;;;;6234348;28;20378;-59
2021/12/19 09:06:47;;;;;;;3.13;2.93;;;7.30;49.80;;;;;;6234539;28;20308;-59
2021/12/19 09:09:50;;;;;;;2.90;2.90;;;7.30;49.30;;;;;;6235369;28;20316;-59
2021/12/19 09:12:53;;;;;;;3.33;3.13;;;7.10;51.20;;;;;;6234282;28;20336;-61
2021/12/19 09:15:56;;;;;;;3.50;3.40;;;7.30;50.70;;;;;;6229853;28;20247;-59
2021/12/19 09:18:59;;;;;;;3.30;3.10;;;7.50;51.00;;;;;;6236090;28;20239;-60
2021/12/19 09:22:04;;;;;;;2.80;2.80;;;7.20;51.30;;;;;;6231279;28;20233;-59
2021/12/19 09:25:08;;;;;;;3.17;3.00;;;7.20;51.40;;;;;;6236723;28;20270;-59
2021/12/19 09:28:11;;;;;;;3.30;3.20;;;7.20;50.40;;;;;;6236026;28;20239;-58
2021/12/19 09:31:14;;;;;;;3.47;3.27;;;7.10;51.20;;;;;;6233779;28;20486;-60
2021/12/19 09:34:16;;;;;;;3.67;3.40;;;7.10;51.20;;;;;;6230840;28;20324;-59
2021/12/19 09:37:21;;;;;;;3.67;3.47;;;7.10;51.20;;;;;;6233913;28;20242;-58
2021/12/19 09:40:32;;;;;;;3.37;3.13;;;7.10;51.30;;;;;;6232668;28;20927;-59
2021/12/19 09:43:42;;;;;;;3.90;3.60;;;7.10;51.40;;;;;;6240069;28;20306;-60
2021/12/19 09:46:46;;;;;;;3.40;3.20;;;7.00;50.50;;;;;;6231877;28;20727;-60
2021/12/19 09:49:49;;;;;;;4.00;3.60;;;7.10;51.20;;;;;;6227662;28;20465;-59
2021/12/19 09:52:53;;;;;;;3.63;3.43;;;7.10;51.20;;;;;;6239286;28;20237;-60
2021/12/19 09:55:56;;;;;;;8.10;4.40;;;7.10;51.20;;;;;;6232634;28;20320;-60
2021/12/19 09:58:59;;;;;;;3.30;3.20;;;7.10;50.00;;;;;;6232816;28;20591;-60
2021/12/19 10:02:02;;;;;;;3.20;3.00;;;7.20;50.90;;;;;;6233104;28;20266;-59
2021/12/19 10:05:16;;;;;;;5.30;3.80;;;7.10;51.20;;;;;;6227262;28;20251;-58
2021/12/19 10:08:24;;;;;;;3.30;3.20;;;7.30;50.80;;;;;;6215046;28;20226;-61
2021/12/19 10:11:32;;;;;;;3.43;3.23;;;7.20;51.30;;;;;;6232061;28;20292;-59
2021/12/19 10:14:36;;;;;;;3.33;3.20;;;7.10;51.60;;;;;;6233038;28;20349;-59
2021/12/19 10:17:40;;;;;;;3.07;3.07;;;7.10;52.30;;;;;;6229956;28;20389;-62
2021/12/19 10:21:10;;;;;;;3.17;3.07;;;7.10;51.20;;;;;;6227733;28;20234;-58
2021/12/19 10:24:35;;;;;;;3.20;3.00;;;7.20;51.40;;;;;;6222819;28;20239;-59
2021/12/19 10:27:41;;;;;;;3.60;3.30;;;7.20;51.30;;;;;;6222327;28;20235;-58
2021/12/19 10:30:47;;;;;;;3.70;3.50;;;7.10;52.80;;;;;;6219218;28;20800;-59
2021/12/19 10:33:50;;;;;;;4.20;3.83;;;7.10;52.60;;;;;;6227165;28;20230;-59
2021/12/19 10:36:53;;;;;;;4.23;3.47;;;7.10;51.90;;;;;;6242103;28;20242;-59
2021/12/19 10:40:02;;;;;;;4.03;3.87;;;7.10;51.90;;;;;;6235328;28;20242;-59
2021/12/19 10:43:06;;;;;;;3.60;3.40;;;7.10;51.80;;;;;;6235466;28;20329;-60
2021/12/19 10:46:09;;;;;;;3.30;3.10;;;7.20;52.70;;;;;;6243489;28;20242;-60
2021/12/19 10:49:23;;;;;;;3.80;3.60;;;7.20;52.20;;;;;;6236484;28;20234;-59
2021/12/19 10:52:34;;;;;;;3.97;3.80;;;7.20;52.10;;;;;;6223603;28;20231;-58
2021/12/19 10:55:41;;;;;;;3.47;3.30;;;7.40;52.30;;;;;;6239228;28;20242;-58
2021/12/19 10:58:45;;;;;;;4.03;3.63;;;7.30;52.80;;;;;;6239035;28;20333;-57
2021/12/19 11:01:52;;;;;;;3.90;3.73;;;7.20;53.70;;;;;;6240579;28;20239;-58
2021/12/19 11:04:54;;;;;;;3.73;3.53;;;7.30;54.60;;;;;;6232069;28;20242;-58
2021/12/19 11:08:02;;;;;;;3.60;3.40;;;7.20;54.80;;;;;;6237909;28;20234;-60
2021/12/19 11:11:06;;;;;;;3.83;3.63;;;7.40;54.40;;;;;;6228615;28;20293;-57
2021/12/19 11:14:10;;;;;;;3.50;3.40;;;7.20;54.40;;;;;;6237886;28;20241;-58
2021/12/19 11:17:15;;;;;;;4.07;3.80;;;7.20;54.40;;;;;;6229631;28;20938;-58
2021/12/19 11:20:20;;;;;;;4.37;3.97;;;7.20;55.00;;;;;;6244564;28;20241;-60
2021/12/19 11:23:23;;;;;;;3.97;3.80;;;7.30;55.50;;;;;;6232466;28;20227;-60
2021/12/19 11:26:27;;;;;;;3.80;3.63;;;7.40;55.50;;;;;;6243022;28;20227;-60
2021/12/19 11:29:31;;;;;;;3.43;3.23;;;7.40;55.10;;;;;;6233519;28;20321;-60
2021/12/19 11:32:48;;;;;;;3.60;3.40;;;7.60;53.80;;;;;;6238839;28;20690;-58
2021/12/19 11:35:56;;;;;;;3.57;3.30;;;7.40;54.10;;;;;;6225395;28;20239;-57
2021/12/19 11:39:01;;;;;;;6.83;3.80;;;7.40;54.60;;;;;;6235584;28;20304;-57
2021/12/19 11:42:14;;;;;;;3.57;3.30;;;7.40;55.40;;;;;;6233219;28;20231;-59
2021/12/19 11:45:27;;;;;;;3.80;3.50;;;7.40;54.10;;;;;;6238395;28;20328;-59
2021/12/19 11:48:33;;;;;;;3.47;3.27;;;7.40;53.50;;;;;;6211223;28;20263;-60
2021/12/19 11:51:36;;;;;;;5.03;3.50;;;7.40;53.10;;;;;;6210063;28;20557;-58
2021/12/19 11:54:39;;;;;;;3.57;3.33;;;7.40;53.20;;;;;;6211030;28;20245;-59
2021/12/19 11:57:44;;;;;;;8.43;4.30;;;7.40;52.30;;;;;;6207403;28;20247;-60
2021/12/19 12:00:50;;;;;;;3.53;3.33;;;7.40;53.00;;;;;;6210755;28;20334;-60
2021/12/19 12:03:58;;;;;;;3.70;3.40;;;7.40;53.30;;;;;;6210578;28;20338;-60
2021/12/19 12:07:01;;;;;;;4.20;3.80;;;7.50;52.80;;;;;;6210110;28;20321;-58
2021/12/19 12:10:04;;;;;;;8.03;3.30;;;7.50;51.50;;;;;;6209966;28;20242;-60
2021/12/19 12:13:22;;;;;;;5.20;3.37;;;7.60;52.80;;;;;;6208651;28;20321;-60
2021/12/19 12:16:43;;;;;;;4.00;3.60;;;7.40;53.50;;;;;;6233776;28;20287;-60
2021/12/19 12:19:48;;;;;;;4.50;3.83;;;7.50;53.00;;;;;;6239795;28;20253;-60
2021/12/19 12:23:07;;;;;;;3.57;3.30;;;7.50;53.50;;;;;;6224917;28;20234;-58
2021/12/19 12:26:24;;;;;;;5.03;3.60;;;7.40;54.20;;;;;;6230712;28;20231;-59
2021/12/19 12:29:28;;;;;;;3.63;3.33;;;7.50;54.30;;;;;;6229482;28;20318;-60
2021/12/19 12:32:31;;;;;;;6.30;3.90;;;7.40;53.90;;;;;;6234812;28;21006;-59
2021/12/19 12:35:37;;;;;;;4.40;3.60;;;7.40;53.90;;;;;;6231312;28;20237;-60
2021/12/19 12:38:44;;;;;;;4.27;3.87;;;7.40;55.00;;;;;;6229567;28;20325;-57
2021/12/19 12:41:59;;;;;;;3.80;3.50;;;7.40;55.00;;;;;;6234365;28;20322;-59
2021/12/19 12:45:05;;;;;;;58.27;6.70;;;7.40;55.80;;;;;;6219902;28;20232;-59
2021/12/19 12:48:09;;;;;;;5.57;3.57;;;7.40;56.70;;;;;;6231830;28;20247;-56
2021/12/19 12:51:18;;;;;;;3.30;3.07;;;7.40;56.00;;;;;;6232811;28;20243;-57
2021/12/19 12:54:26;;;;;;;4.77;3.10;;;7.40;56.00;;;;;;6228601;28;20608;-57
2021/12/19 12:57:30;;;;;;;4.23;3.90;;;7.60;56.20;;;;;;6233500;28;20235;-63
2021/12/19 13:00:34;;;;;;;3.33;3.03;;;7.40;56.60;;;;;;6236496;28;20230;-58
2021/12/19 13:03:37;;;;;;;3.43;3.17;;;7.40;56.60;;;;;;6231534;28;20775;-58
2021/12/19 13:06:55;;;;;;;6.00;3.57;;;7.40;57.20;;;;;;6217050;28;20247;-58
2021/12/19 13:10:00;;;;;;;3.60;3.20;;;7.50;57.10;;;;;;6229414;28;20274;-58
2021/12/19 13:13:09;;;;;;;3.73;3.40;;;7.40;57.10;;;;;;6233386;28;20235;-59
2021/12/19 13:16:13;;;;;;;5.03;3.23;;;7.40;57.00;;;;;;6236866;28;20358;-58
2021/12/19 13:19:50;;;;;;;2.97;2.77;;;7.40;57.20;;;;;;6235146;28;20363;-59
2021/12/19 13:22:55;;;;;;;3.40;3.20;;;7.40;56.70;;;;;;6116792;28;20304;-57
2021/12/19 13:26:03;;;;;;;3.30;3.10;;;7.40;57.30;;;;;;6236631;28;20325;-60
2021/12/19 13:29:18;;;;;;;3.23;3.13;;;7.40;57.60;;;;;;6234189;28;20279;-58
2021/12/19 13:32:26;;;;;;;3.20;3.00;;;7.50;58.10;;;;;;6227245;28;20318;-57
2021/12/19 13:35:31;;;;;;;3.47;3.20;;;7.40;58.10;;;;;;6231772;28;20242;-57
2021/12/19 13:38:33;;;;;;;3.30;3.10;;;7.40;58.20;;;;;;6233938;28;20304;-59
2021/12/19 13:41:36;;;;;;;4.37;4.17;;;7.40;58.10;;;;;;6232361;28;20238;-59
2021/12/19 13:44:39;;;;;;;5.83;3.27;;;7.50;58.00;;;;;;6234820;28;20260;-58
2021/12/19 13:47:43;;;;;;;3.10;2.97;;;7.40;57.80;;;;;;6234443;28;20274;-59
2021/12/19 13:50:54;;;;;;;3.97;3.43;;;7.40;58.40;;;;;;6231781;28;20334;-57
2021/12/19 13:53:58;;;;;;;3.20;2.90;;;7.40;58.20;;;;;;6232007;28;20747;-58
2021/12/19 13:57:02;;;;;;;3.37;3.07;;;7.40;58.50;;;;;;6232210;28;20442;-58
2021/12/19 14:00:07;;;;;;;3.40;3.20;;;7.40;58.40;;;;;;6235552;28;20242;-58
2021/12/19 14:03:11;;;;;;;3.50;3.20;;;7.30;59.00;;;;;;6230537;28;20314;-58
2021/12/19 14:06:23;;;;;;;3.47;3.30;;;7.40;59.40;;;;;;6233625;28;20230;-58
2021/12/19 14:09:26;;;;;;;3.43;3.13;;;7.30;59.50;;;;;;6235277;28;20238;-59
2021/12/19 14:12:52;;;;;;;3.30;3.20;;;7.30;59.60;;;;;;6236199;28;20621;-58
2021/12/19 14:15:52;;;;;;;3.40;3.10;;;7.20;60.30;;;;;;6224168;28;20319;-60
2021/12/19 14:18:56;;;;;;;3.37;2.87;;;7.30;60.40;;;;;;6228889;28;20234;-59
2021/12/19 14:22:11;;;;;;;3.40;3.10;;;7.20;60.40;;;;;;6235057;28;20417;-59
2021/12/19 14:25:14;;;;;;;3.47;3.27;;;7.40;60.50;;;;;;6235224;28;20296;-59
2021/12/19 14:28:19;;;;;;;3.50;3.20;;;7.30;60.40;;;;;;6230838;28;20327;-57
2021/12/19 14:31:22;;;;;;;3.50;3.20;;;7.30;60.40;;;;;;6233794;28;20291;-58
2021/12/19 14:34:29;;;;;;;3.27;3.17;;;7.30;60.40;;;;;;6226202;28;20390;-58
2021/12/19 14:37:33;;;;;;;3.10;3.00;;;7.20;60.00;;;;;;6201351;28;20376;-58
2021/12/19 14:40:40;;;;;;;3.53;3.20;;;7.30;60.40;;;;;;6237137;28;20234;-58
2021/12/19 14:43:44;;;;;;;3.53;3.30;;;7.30;60.70;;;;;;6225881;28;20237;-59
2021/12/19 14:46:47;;;;;;;3.40;3.30;;;7.40;60.50;;;;;;6229104;28;20296;-58
2021/12/19 14:49:51;;;;;;;5.67;3.00;;;7.40;60.60;;;;;;6225405;28;20391;-59
2021/12/19 14:53:02;;;;;;;5.80;3.70;;;7.30;60.40;;;;;;6233175;28;20318;-59
2021/12/19 14:56:09;;;;;;;5.90;3.57;;;7.30;60.40;;;;;;6229123;28;20238;-59
2021/12/19 14:59:16;;;;;;;3.00;2.90;;;7.30;60.40;;;;;;6233958;28;20357;-58
2021/12/19 15:02:19;;;;;;;7.77;4.40;;;7.30;60.40;;;;;;6236331;28;20858;-58
2021/12/19 15:05:23;;;;;;;4.13;3.70;;;7.30;60.40;;;;;;6230422;28;20239;-60
2021/12/19 15:08:27;;;;;;;4.10;3.80;;;7.40;60.50;;;;;;6210630;28;20910;-59
2021/12/19 15:11:30;;;;;;;4.03;3.67;;;7.30;60.40;;;;;;6208895;28;20414;-59
2021/12/19 15:14:33;;;;;;;4.10;3.57;;;7.50;60.50;;;;;;6220243;28;20288;-59
2021/12/19 15:17:36;;;;;;;3.77;3.60;;;7.20;60.30;;;;;;6236076;28;20765;-59
2021/12/19 15:20:40;;;;;;;3.40;3.30;;;7.30;60.40;;;;;;6236601;28;20230;-58
2021/12/19 15:23:43;;;;;;;3.73;3.53;;;7.40;59.90;;;;;;6234753;28;20851;-60
2021/12/19 15:26:46;;;;;;;4.47;3.73;;;7.40;59.60;;;;;;6246643;28;20254;-59
2021/12/19 15:29:49;;;;;;;4.30;3.90;;;7.30;58.90;;;;;;6259016;28;20235;-57
2021/12/19 15:32:54;;;;;;;4.07;3.80;;;7.30;59.50;;;;;;6255781;28;20245;-60
2021/12/19 15:35:58;;;;;;;4.20;3.80;;;7.30;60.40;;;;;;6255993;28;20265;-57
2021/12/19 15:39:01;;;;;;;3.60;3.40;;;7.60;60.70;;;;;;6234038;28;20236;-58
2021/12/19 15:42:05;;;;;;;3.53;3.43;;;7.20;58.50;;;;;;6236299;28;20313;-58
2021/12/19 15:45:09;;;;;;;3.57;3.40;;;7.20;55.90;;;;;;6233174;28;20239;-57
2021/12/19 15:48:12;;;;;;;3.87;3.57;;;7.20;51.70;;;;;;6231481;28;20325;-58
2021/12/19 15:51:16;;;;;;;3.03;2.93;;;7.20;47.50;;;;;;6236145;28;20286;-58
2021/12/19 15:54:21;;;;;;;2.97;2.87;;;7.30;44.60;;;;;;6232648;28;20373;-59
2021/12/19 15:57:24;;;;;;;3.40;3.00;;;7.50;44.40;;;;;;6231277;28;20239;-57
2021/12/19 16:00:27;;;;;;;3.60;3.40;;;7.20;46.50;;;;;;6233482;28;20234;-57
2021/12/19 16:03:30;;;;;;;3.50;3.20;;;7.10;47.90;;;;;;6234237;28;20234;-60
2021/12/19 16:06:39;;;;;;;4.23;3.50;;;7.00;46.70;;;;;;6234255;28;20242;-57
2021/12/19 16:09:42;;;;;;;5.90;3.63;;;7.00;44.30;;;;;;6232766;28;20750;-58
2021/12/19 16:12:45;;;;;;;3.83;3.57;;;6.90;44.50;;;;;;6232414;28;20384;-59
2021/12/19 16:15:48;;;;;;;5.47;3.73;;;6.90;45.20;;;;;;6232617;28;20312;-60
2021/12/19 16:18:55;;;;;;;4.40;3.70;;;6.80;45.60;;;;;;6231704;28;20360;-58
2021/12/19 16:22:01;;;;;;;4.10;3.70;;;6.70;46.70;;;;;;6228053;28;20300;-60
2021/12/19 16:25:06;;;;;;;4.10;3.80;;;6.90;46.80;;;;;;6230936;28;20245;-60
2021/12/19 16:28:09;;;;;;;4.30;3.90;;;6.70;46.20;;;;;;6232424;28;20400;-58
2021/12/19 16:31:15;;;;;;;4.83;4.17;;;6.90;46.50;;;;;;6233775;28;20261;-57
2021/12/19 16:34:18;;;;;;;4.07;3.77;;;6.60;46.40;;;;;;6228308;28;20227;-58
2021/12/19 16:37:22;;;;;;;6.60;4.00;;;6.70;48.20;;;;;;6234286;28;20322;-60
2021/12/19 16:40:27;;;;;;;4.47;4.07;;;6.70;47.90;;;;;;6224479;28;20232;-59
2021/12/19 16:43:30;;;;;;;5.03;4.53;;;6.70;49.20;;;;;;6230123;28;20273;-58
2021/12/19 16:46:32;;;;;;;7.00;4.73;;;6.70;50.90;;;;;;6233751;28;20278;-58
2021/12/19 16:49:35;;;;;;;8.17;4.77;;;6.70;53.80;;;;;;6233237;28;20262;-59
2021/12/19 16:52:39;;;;;;;7.67;5.00;;;6.60;54.70;;;;;;6233070;28;20276;-57
2021/12/19 16:55:42;;;;;;;6.67;5.43;;;6.80;56.00;;;;;;6228395;28;20912;-58
2021/12/19 16:58:45;;;;;;;5.43;4.97;;;6.70;56.70;;;;;;6228412;28;20331;-58
2021/12/19 17:01:49;;;;;;;10.60;4.93;;;6.80;56.60;;;;;;6233230;28;20231;-59